Time;durP1;ratioP1;P1;durP2;ratioP2;P2;SDS_P1;SDS_P2;PMS_P1;PMS_P2;Temp;Humidity;BMP_temperature;BMP_pressure;BME280_temperature;BME280_humidity;BME280_pressure;Samples;Min_cycle;Max_cycle;Signal;HPM_P1;HPM_P2
2022/04/20 00:00:40;;;;;;;;;;;6.40;99.90;;;;;;4994046;28;20279;-71
2022/04/20 00:03:12;;;;;;;;;;;6.30;99.90;;;;;;4993528;28;19929;-71
2022/04/20 00:05:44;;;;;;;;;;;6.10;99.90;;;;;;4984788;28;20284;-71
2022/04/20 00:08:15;;;;;;;;;;;6.00;99.90;;;;;;4994081;28;19929;-71
2022/04/20 00:10:47;;;;;;;;;;;6.00;99.90;;;;;;4994015;28;19926;-71
2022/04/20 00:13:18;;;;;;;;;;;6.00;99.90;;;;;;4997429;28;19925;-71
2022/04/20 00:15:50;;;;;;;;;;;5.90;99.90;;;;;;5024022;28;19933;-71
2022/04/20 00:18:21;;;;;;;;;;;5.90;99.90;;;;;;4993574;28;19926;-71
2022/04/20 00:20:53;;;;;;;;;;;5.90;99.90;;;;;;4993621;28;19926;-71
2022/04/20 00:23:25;;;;;;;;;;;5.90;99.90;;;;;;4993429;28;20318;-71
2022/04/20 00:25:56;;;;;;;;;;;5.80;99.90;;;;;;4993444;28;19929;-70
2022/04/20 00:28:28;;;;;;;;;;;5.80;99.90;;;;;;4993046;28;20436;-71
2022/04/20 00:31:00;;;;;;;;;;;5.70;99.90;;;;;;4992185;28;19930;-71
2022/04/20 00:33:32;;;;;;;;;;;5.60;99.90;;;;;;4993485;28;19926;-71
2022/04/20 00:36:04;;;;;;;;;;;5.40;99.90;;;;;;5011663;28;19925;-71
2022/04/20 00:38:35;;;;;;;;;;;5.30;99.90;;;;;;5011861;28;19930;-71
2022/04/20 00:41:09;;;;;;;;;;;5.20;99.90;;;;;;5011784;28;19933;-71
2022/04/20 00:43:41;;;;;;;;;;;5.10;99.90;;;;;;5011748;28;19926;-71
2022/04/20 00:46:14;;;;;;;;;;;5.00;99.90;;;;;;5028076;28;19977;-71
2022/04/20 00:48:46;;;;;;;;;;;5.00;99.90;;;;;;5005747;28;20305;-71
2022/04/20 00:51:19;;;;;;;;;;;4.90;99.90;;;;;;5010253;28;19925;-71
2022/04/20 00:53:50;;;;;;;;;;;4.90;99.90;;;;;;5003569;28;20445;-71
2022/04/20 00:56:22;;;;;;;;;;;4.90;99.90;;;;;;5011636;28;19925;-71
2022/04/20 00:58:56;;;;;;;;;;;4.90;99.90;;;;;;5011530;28;20350;-72
2022/04/20 01:01:29;;;;;;;;;;;4.80;99.90;;;;;;5011209;28;19932;-71
2022/04/20 01:04:01;;;;;;;;;;;4.60;99.90;;;;;;4997852;28;20016;-71
2022/04/20 01:07:13;;;;;;;;;;;4.60;99.90;;;;;;4991583;28;19930;-71
2022/04/20 01:10:14;;;;;;;;;;;4.60;99.90;;;;;;4956396;28;20002;-71
2022/04/20 01:13:09;;;;;;;;;;;4.50;99.90;;;;;;4997619;28;19972;-71
2022/04/20 01:16:01;;;;;;;;;;;4.50;99.90;;;;;;5006444;28;19932;-71
2022/04/20 01:19:00;;;;;;;;;;;4.50;99.90;;;;;;4992926;28;19958;-71
2022/04/20 01:21:43;;;;;;;;;;;4.50;99.90;;;;;;5027087;28;20386;-71
2022/04/20 01:24:51;;;;;;;;;;;4.50;99.90;;;;;;4989883;28;19936;-71
2022/04/20 01:27:25;;;;;;;;;;;4.50;99.90;;;;;;5008811;28;19936;-71
2022/04/20 01:30:20;;;;;;;;;;;4.50;99.90;;;;;;4987517;28;19980;-71
2022/04/20 01:33:10;;;;;;;;;;;4.40;99.90;;;;;;4992352;28;20019;-72
2022/04/20 01:35:47;;;;;;;;;;;4.40;99.90;;;;;;5009418;28;19929;-71
2022/04/20 01:38:19;;;;;;;;;;;4.30;99.90;;;;;;5011949;28;20402;-71
2022/04/20 01:40:51;;;;;;;;;;;4.30;99.90;;;;;;5014472;28;19929;-71
2022/04/20 01:43:22;;;;;;;;;;;4.20;99.90;;;;;;4994391;28;20320;-71
2022/04/20 01:46:13;;;;;;;;;;;4.20;99.90;;;;;;4996455;28;20001;-71
2022/04/20 01:49:03;;;;;;;;;;;4.10;99.90;;;;;;4996493;28;19934;-71
2022/04/20 01:51:54;;;;;;;;;;;4.00;99.90;;;;;;4997188;28;19932;-71
2022/04/20 01:54:44;;;;;;;;;;;3.90;99.90;;;;;;5005974;28;20103;-70
2022/04/20 01:57:38;;;;;;;;;;;3.80;99.90;;;;;;5008814;28;19972;-72
2022/04/20 02:00:16;;;;;;;;;;;3.80;99.90;;;;;;4994748;28;19925;-72
2022/04/20 02:02:58;;;;;;;;;;;3.80;99.90;;;;;;4999473;28;19926;-72
2022/04/20 02:05:53;;;;;;;;;;;3.70;99.90;;;;;;5002745;28;19933;-72
2022/04/20 02:08:51;;;;;;;;;;;3.70;99.90;;;;;;5000779;28;20310;-72
2022/04/20 02:11:45;;;;;;;;;;;3.60;99.90;;;;;;5000441;28;20020;-72
2022/04/20 02:14:33;;;;;;;;;;;3.60;99.90;;;;;;5001029;28;20020;-72
2022/04/20 02:17:17;;;;;;;;;;;3.60;99.90;;;;;;5000483;28;19930;-72
2022/04/20 02:19:58;;;;;;;;;;;3.60;99.90;;;;;;5003866;28;20405;-72
2022/04/20 02:22:30;;;;;;;;;;;3.50;99.90;;;;;;5010447;28;19966;-72
2022/04/20 02:25:03;;;;;;;;;;;3.50;99.90;;;;;;5004739;28;19929;-72
2022/04/20 02:27:35;;;;;;;;;;;3.50;99.90;;;;;;4997014;28;19946;-72
2022/04/20 02:30:07;;;;;;;;;;;3.50;99.90;;;;;;4999622;28;20293;-72
2022/04/20 02:32:38;;;;;;;;;;;3.40;99.90;;;;;;5004428;28;19980;-72
2022/04/20 02:35:10;;;;;;;;;;;3.40;99.90;;;;;;5006171;28;19968;-72
2022/04/20 02:37:42;;;;;;;;;;;3.40;99.90;;;;;;5002566;28;19937;-72
2022/04/20 02:40:16;;;;;;;;;;;3.40;99.90;;;;;;4994890;28;20016;-72
2022/04/20 02:42:48;;;;;;;;;;;3.40;99.90;;;;;;5015704;28;20044;-72
2022/04/20 02:45:20;;;;;;;;;;;3.40;99.90;;;;;;5016985;28;19933;-72
2022/04/20 02:47:52;;;;;;;;;;;3.50;99.90;;;;;;5002583;28;20473;-72
2022/04/20 02:50:23;;;;;;;;;;;3.50;99.90;;;;;;5008857;28;20416;-72
2022/04/20 02:52:56;;;;;;;;;;;3.50;99.90;;;;;;5010296;28;20084;-72
2022/04/20 02:55:29;;;;;;;;;;;3.50;99.90;;;;;;4999458;28;19926;-72
2022/04/20 02:58:01;;;;;;;;;;;3.50;99.90;;;;;;5012002;28;19925;-72
2022/04/20 03:00:33;;;;;;;;;;;3.40;99.90;;;;;;5000290;28;19932;-72
2022/04/20 03:03:19;;;;;;;;;;;3.40;99.90;;;;;;4995257;28;20048;-72
2022/04/20 03:05:53;;;;;;;;;;;3.40;99.90;;;;;;5004092;28;19930;-72
2022/04/20 03:08:25;;;;;;;;;;;3.30;99.90;;;;;;5011924;28;19933;-72
2022/04/20 03:10:57;;;;;;;;;;;3.30;99.90;;;;;;5003931;28;20433;-72
2022/04/20 03:13:29;;;;;;;;;;;3.30;99.90;;;;;;5003096;28;19941;-72
2022/04/20 03:16:00;;;;;;;;;;;3.30;99.90;;;;;;5017857;28;19948;-72
2022/04/20 03:18:32;;;;;;;;;;;3.20;99.90;;;;;;4997325;28;19936;-72
2022/04/20 03:21:14;;;;;;;;;;;3.20;99.90;;;;;;5008905;28;19980;-72
2022/04/20 03:23:47;;;;;;;;;;;3.10;99.90;;;;;;5001699;28;20015;-72
2022/04/20 03:26:32;;;;;;;;;;;3.10;99.90;;;;;;5017109;28;19932;-72
2022/04/20 03:29:13;;;;;;;;;;;3.10;99.90;;;;;;4992182;28;19988;-72
2022/04/20 03:31:45;;;;;;;;;;;3.00;99.90;;;;;;4993565;28;19969;-72
2022/04/20 03:34:16;;;;;;;;;;;2.90;99.90;;;;;;4997725;28;19933;-72
2022/04/20 03:36:48;;;;;;;;;;;2.90;99.90;;;;;;4997083;28;19936;-72
2022/04/20 03:39:19;;;;;;;;;;;2.80;99.90;;;;;;5009846;28;19929;-72
2022/04/20 03:41:51;;;;;;;;;;;2.80;99.90;;;;;;5000065;28;20418;-72
2022/04/20 03:44:23;;;;;;;;;;;2.80;99.90;;;;;;5016538;28;19933;-72
2022/04/20 03:46:54;;;;;;;;;;;2.70;99.90;;;;;;5011105;28;19925;-72
2022/04/20 03:49:26;;;;;;;;;;;2.70;99.90;;;;;;5010359;28;19934;-72
2022/04/20 03:51:59;;;;;;;;;;;2.70;99.90;;;;;;5008441;28;19925;-72
2022/04/20 03:54:32;;;;;;;;;;;2.60;99.90;;;;;;5016564;28;19980;-72
2022/04/20 03:57:05;;;;;;;;;;;2.60;99.90;;;;;;5006440;28;19933;-72
2022/04/20 03:59:44;;;;;;;;;;;2.50;99.90;;;;;;4997926;28;19925;-72
2022/04/20 04:02:18;;;;;;;;;;;3.20;99.90;;;;;;5000916;28;19935;-72
2022/04/20 04:05:05;;;;;;;;;;;3.70;99.90;;;;;;5008394;28;19953;-72
2022/04/20 04:07:43;;;;;;;;;;;3.70;99.90;;;;;;5003116;28;20016;-72
2022/04/20 04:10:18;;;;;;;;;;;3.60;99.90;;;;;;5005802;28;20293;-72
2022/04/20 04:12:50;;;;;;;;;;;3.40;99.90;;;;;;4985473;28;19929;-72
2022/04/20 04:15:22;;;;;;;;;;;3.20;99.90;;;;;;5005314;28;19926;-72
2022/04/20 04:17:58;;;;;;;;;;;3.00;99.90;;;;;;5019901;28;19926;-72
2022/04/20 04:20:39;;;;;;;;;;;2.90;99.90;;;;;;5007173;28;19940;-72
2022/04/20 04:23:13;;;;;;;;;;;2.80;99.90;;;;;;5024826;28;20416;-73
2022/04/20 04:25:57;;;;;;;;;;;2.70;99.90;;;;;;5000964;28;19936;-72
2022/04/20 04:28:35;;;;;;;;;;;2.60;99.90;;;;;;5008328;28;19936;-72
2022/04/20 04:31:07;;;;;;;;;;;2.60;99.90;;;;;;5012062;28;19980;-72
2022/04/20 04:33:35;;;;;;;;;;;2.50;99.90;;;;;;4988480;28;19925;-72
2022/04/20 04:36:08;;;;;;;;;;;2.50;99.90;;;;;;5031608;28;19929;-72
2022/04/20 04:38:45;;;;;;;;;;;2.50;99.90;;;;;;5007047;28;20025;-72
2022/04/20 04:41:22;;;;;;;;;;;2.50;99.90;;;;;;5011470;28;19926;-72
2022/04/20 04:43:55;;;;;;;;;;;2.40;99.90;;;;;;5000861;28;19930;-72
2022/04/20 04:49:26;;;;;;;;;;;2.40;99.90;;;;;;5015798;28;19932;-72
2022/04/20 04:51:55;;;;;;;;;;;2.40;99.90;;;;;;5005291;28;20305;-73
2022/04/20 04:54:27;;;;;;;;;;;2.40;99.90;;;;;;5020421;28;20422;-72
2022/04/20 04:56:59;;;;;;;;;;;2.30;99.90;;;;;;5000599;28;20378;-72
2022/04/20 04:59:32;;;;;;;;;;;2.30;99.90;;;;;;4996385;28;20564;-72
2022/04/20 05:02:04;;;;;;;;;;;2.30;99.90;;;;;;4998241;28;20341;-72
2022/04/20 05:04:31;;;;;;;;;;;2.30;99.90;;;;;;4999824;28;19976;-72
2022/04/20 05:07:03;;;;;;;;;;;2.30;99.90;;;;;;5001617;28;19930;-72
2022/04/20 05:09:41;;;;;;;;;;;2.30;99.90;;;;;;5010011;28;19934;-72
2022/04/20 05:12:13;;;;;;;;;;;2.30;99.90;;;;;;4984117;28;19985;-72
2022/04/20 05:14:47;;;;;;;;;;;2.40;99.90;;;;;;5003358;28;19938;-72
2022/04/20 05:17:20;;;;;;;;;;;2.40;99.90;;;;;;5009771;28;20267;-72
2022/04/20 05:19:52;;;;;;;;;;;2.50;99.90;;;;;;5028048;28;19932;-72
2022/04/20 05:22:25;;;;;;;;;;;2.50;99.90;;;;;;5005890;28;19929;-73
2022/04/20 05:24:57;;;;;;;;;;;2.50;99.90;;;;;;5007989;28;19941;-73
2022/04/20 05:27:29;;;;;;;;;;;2.50;99.90;;;;;;5011100;28;19925;-73
2022/04/20 05:30:08;;;;;;;;;;;2.60;99.90;;;;;;4993405;28;20327;-72
2022/04/20 05:32:41;;;;;;;;;;;2.60;99.90;;;;;;5007472;28;20028;-72
2022/04/20 05:35:17;;;;;;;;;;;2.70;99.90;;;;;;4993080;28;19933;-73
2022/04/20 05:43:42;;;;;;;;;;;2.90;99.90;;;;;;5016083;28;20425;-73
2022/04/20 05:46:19;;;;;;;;;;;3.00;99.90;;;;;;5021570;28;19929;-73
2022/04/20 05:49:08;;;;;;;;;;;3.00;99.90;;;;;;4999794;28;20342;-72
2022/04/20 05:51:40;;;;;;;;;;;3.10;99.90;;;;;;4984555;28;20383;-73
2022/04/20 05:54:07;;;;;;;;;;;3.10;99.90;;;;;;5021534;28;19984;-73
2022/04/20 05:56:39;;;;;;;;;;;3.20;99.90;;;;;;5020283;28;20338;-73
2022/04/20 05:59:10;;;;;;;;;;;3.30;99.90;;;;;;5025724;28;20019;-76
2022/04/20 06:01:42;;;;;;;;;;;3.40;99.90;;;;;;5006999;28;20525;-73
2022/04/20 06:04:18;;;;;;;;;;;3.40;99.90;;;;;;5004920;28;19925;-73
2022/04/20 06:07:06;;;;;;;;;;;3.50;99.90;;;;;;5012326;28;19930;-72
2022/04/20 06:09:44;;;;;;;;;;;3.60;99.90;;;;;;5001966;28;19937;-73
2022/04/20 06:12:38;;;;;;;;;;;3.70;99.90;;;;;;4995541;28;19932;-72
2022/04/20 06:15:29;;;;;;;;;;;3.80;99.90;;;;;;5009014;28;19932;-72
2022/04/20 06:18:21;;;;;;;;;;;3.90;99.90;;;;;;4999054;28;19929;-73
2022/04/20 06:21:17;;;;;;;;;;;4.00;99.90;;;;;;4995309;28;19936;-72
2022/04/20 06:24:10;;;;;;;;;;;4.10;99.90;;;;;;4991262;28;19958;-73
2022/04/20 06:26:46;;;;;;;;;;;4.20;99.90;;;;;;5009970;28;20263;-72
2022/04/20 06:29:21;;;;;;;;;;;4.20;99.90;;;;;;5005000;28;19941;-72
2022/04/20 06:32:01;;;;;;;;;;;4.30;99.90;;;;;;5002539;28;19929;-73
2022/04/20 06:35:00;;;;;;;;;;;4.40;99.90;;;;;;5011682;28;19980;-72
2022/04/20 06:37:50;;;;;;;;;;;4.50;99.90;;;;;;5004975;28;19948;-72
2022/04/20 06:40:36;;;;;;;;;;;4.60;99.90;;;;;;4993355;28;20068;-72
2022/04/20 06:43:25;;;;;;;;;;;4.70;99.90;;;;;;5003232;28;19980;-72
2022/04/20 06:46:26;;;;;;;;;;;4.70;99.90;;;;;;4949561;28;19990;-72
2022/04/20 06:49:23;;;;;;;;;;;4.80;99.90;;;;;;5020353;28;19925;-72
2022/04/20 07:00:48;;;;;;;;;;;5.20;99.90;;;;;;5005057;28;19936;-72
2022/04/20 07:03:42;;;;;;;;;;;5.30;99.90;;;;;;4994997;28;19987;-72
2022/04/20 07:06:28;;;;;;;;;;;5.40;99.90;;;;;;5010191;28;19933;-72
2022/04/20 07:09:26;;;;;;;;;;;5.50;99.90;;;;;;5007239;28;20024;-72
2022/04/20 07:12:03;;;;;;;;;;;5.70;99.90;;;;;;5023627;28;19932;-72
2022/04/20 07:14:35;;;;;;;;;;;5.70;99.90;;;;;;5016651;28;20526;-72
2022/04/20 07:17:07;;;;;;;;;;;5.80;99.90;;;;;;4989037;28;19925;-72
2022/04/20 07:19:44;;;;;;;;;;;6.00;99.90;;;;;;5008598;28;19930;-72
2022/04/20 07:22:38;;;;;;;;;;;6.10;99.90;;;;;;5022094;28;19929;-72
2022/04/20 07:25:23;;;;;;;;;;;6.20;99.90;;;;;;5006909;28;19956;-72
2022/04/20 07:28:08;;;;;;;;;;;6.30;99.90;;;;;;5007740;28;19929;-72
2022/04/20 07:30:58;;;;;;;;;;;6.40;99.90;;;;;;5007413;28;19937;-72
2022/04/20 07:33:48;;;;;;;;;;;6.50;99.90;;;;;;5004928;28;20386;-72
2022/04/20 07:36:40;;;;;;;;;;;6.60;99.90;;;;;;5002395;28;20448;-72
2022/04/20 07:42:54;;;;;;;;;;;6.80;99.90;;;;;;5022929;28;19974;-72
2022/04/20 07:45:54;;;;;;;;;;;6.90;99.90;;;;;;5005748;28;19936;-72
2022/04/20 07:48:50;;;;;;;;;;;7.00;99.90;;;;;;5002535;28;20609;-72
2022/04/20 07:51:41;;;;;;;;;;;7.10;99.90;;;;;;5008426;28;19968;-72
2022/04/20 07:54:37;;;;;;;;;;;7.30;99.90;;;;;;5020756;28;19929;-72
2022/04/20 07:57:22;;;;;;;;;;;7.30;99.90;;;;;;5008170;28;19925;-72
2022/04/20 08:00:12;;;;;;;;;;;7.40;99.90;;;;;;5003460;28;19983;-72
2022/04/20 08:03:08;;;;;;;;;;;7.60;99.90;;;;;;5003143;28;19957;-72
2022/04/20 08:05:40;;;;;;;;;;;7.80;99.90;;;;;;5020236;28;20038;-72
2022/04/20 08:08:07;;;;;;;;;;;7.90;99.90;;;;;;4992154;28;20398;-72
2022/04/20 08:10:39;;;;;;;;;;;8.00;99.90;;;;;;5011104;28;19926;-72
2022/04/20 08:16:05;;;;;;;;;;;8.20;99.90;;;;;;5030863;28;20034;-75
2022/04/20 08:18:45;;;;;;;;;;;8.30;99.90;;;;;;4999104;28;19933;-73
2022/04/20 08:21:49;;;;;;;;;;;8.50;99.90;;;;;;5006585;28;19940;-71
2022/04/20 08:24:20;;;;;;;;;;;8.60;99.90;;;;;;5001739;28;19925;-72
2022/04/20 08:26:52;;;;;;;;;;;8.70;99.90;;;;;;5025311;28;19926;-73
2022/04/20 08:29:23;;;;;;;;;;;8.90;99.90;;;;;;4997653;28;19933;-72
2022/04/20 08:31:50;;;;;;;;;;;8.90;99.90;;;;;;5003523;28;19926;-73
2022/04/20 08:34:21;;;;;;;;;;;9.00;99.90;;;;;;5002116;28;19930;-73
2022/04/20 08:36:53;;;;;;;;;;;9.10;99.90;;;;;;5006178;28;19948;-73
2022/04/20 08:39:25;;;;;;;;;;;9.20;99.90;;;;;;5002902;28;19932;-73
2022/04/20 08:41:59;;;;;;;;;;;9.20;99.90;;;;;;5003940;28;20266;-73
2022/04/20 08:44:27;;;;;;;;;;;9.30;99.90;;;;;;5005973;28;20023;-72
2022/04/20 08:47:00;;;;;;;;;;;9.40;99.90;;;;;;5007224;28;19956;-73
2022/04/20 08:49:32;;;;;;;;;;;9.50;99.90;;;;;;5027340;28;19925;-72
2022/04/20 08:54:50;;;;;;;;;;;9.70;99.90;;;;;;5005881;28;20320;-72
2022/04/20 08:57:22;;;;;;;;;;;9.80;98.80;;;;;;5004638;28;19929;-72
2022/04/20 08:59:54;;;;;;;;;;;10.00;98.40;;;;;;5001588;28;19930;-72
2022/04/20 09:02:25;;;;;;;;;;;10.10;97.70;;;;;;5005889;28;19929;-72
2022/04/20 09:04:57;;;;;;;;;;;10.20;97.60;;;;;;5001577;28;19991;-72
2022/04/20 09:07:25;;;;;;;;;;;10.30;97.70;;;;;;5000685;28;19973;-71
2022/04/20 09:09:57;;;;;;;;;;;10.40;96.50;;;;;;4992874;28;19929;-72
2022/04/20 09:12:25;;;;;;;;;;;10.50;96.00;;;;;;5002912;28;19983;-72
2022/04/20 09:14:52;;;;;;;;;;;10.50;95.80;;;;;;4982607;28;19926;-72
2022/04/20 09:17:26;;;;;;;;;;;10.50;94.40;;;;;;4983520;28;19930;-72
2022/04/20 09:19:58;;;;;;;;;;;10.60;94.60;;;;;;5007323;28;20397;-71
2022/04/20 09:22:26;;;;;;;;;;;10.60;94.50;;;;;;5022640;28;19933;-72
2022/04/20 09:24:59;;;;;;;;;;;10.70;93.40;;;;;;5003013;28;19929;-71
2022/04/20 09:27:31;;;;;;;;;;;10.80;93.00;;;;;;5000752;28;19930;-72
2022/04/20 09:29:58;;;;;;;;;;;10.90;92.60;;;;;;5007989;28;19930;-72
2022/04/20 09:32:34;;;;;;;;;;;11.00;93.50;;;;;;4985090;28;19925;-72
2022/04/20 09:35:08;;;;;;;;;;;11.10;92.20;;;;;;5018170;28;19972;-72
2022/04/20 09:37:41;;;;;;;;;;;11.10;91.80;;;;;;4995665;28;19937;-72
2022/04/20 09:40:41;;;;;;;;;;;11.20;91.00;;;;;;5002766;28;20490;-72
2022/04/20 09:43:15;;;;;;;;;;;11.20;88.70;;;;;;5001735;28;19930;-72
2022/04/20 09:45:41;;;;;;;;;;;11.30;86.40;;;;;;5007402;28;19926;-72
2022/04/20 09:51:14;;;;;;;;;;;11.40;90.00;;;;;;5004003;28;19933;-72
2022/04/20 09:53:50;;;;;;;;;;;11.50;88.00;;;;;;5004743;28;19925;-72
2022/04/20 09:56:23;;;;;;;;;;;11.70;87.60;;;;;;5008572;28;19925;-72
2022/04/20 09:58:57;;;;;;;;;;;11.70;84.80;;;;;;4996355;28;19929;-70
2022/04/20 10:01:31;;;;;;;;;;;11.80;82.20;;;;;;5008885;28;20421;-72
2022/04/20 10:03:58;;;;;;;;;;;11.90;82.10;;;;;;5010813;28;20431;-70
2022/04/20 10:06:30;;;;;;;;;;;12.00;83.00;;;;;;5007234;28;20019;-70
2022/04/20 10:09:03;;;;;;;;;;;12.10;80.30;;;;;;5009678;28;20025;-70
2022/04/20 10:11:36;;;;;;;;;;;12.20;80.20;;;;;;5007710;28;19926;-70
2022/04/20 10:16:52;;;;;;;;;;;12.20;82.10;;;;;;5026012;28;20555;-70
2022/04/20 10:19:25;;;;;;;;;;;12.20;80.10;;;;;;5004936;28;20019;-70
2022/04/20 10:21:53;;;;;;;;;;;12.30;79.80;;;;;;4993464;28;19930;-71
2022/04/20 10:24:27;;;;;;;;;;;12.40;76.80;;;;;;5003428;28;19937;-70
2022/04/20 10:27:02;;;;;;;;;;;12.40;77.00;;;;;;5008486;28;19926;-69
2022/04/20 10:29:42;;;;;;;;;;;12.40;76.00;;;;;;5004169;28;19926;-69
2022/04/20 10:32:22;;;;;;;;;;;12.50;76.20;;;;;;5011370;28;20020;-70
2022/04/20 10:34:52;;;;;;;;;;;12.50;76.40;;;;;;5023564;28;20588;-70
2022/04/20 10:37:33;;;;;;;;;;;12.60;75.00;;;;;;5010465;28;19933;-70
2022/04/20 10:40:14;;;;;;;;;;;12.70;75.80;;;;;;5008893;28;20318;-70
2022/04/20 10:43:07;;;;;;;;;;;12.80;76.60;;;;;;4992922;28;19972;-69
2022/04/20 10:45:38;;;;;;;;;;;12.90;76.30;;;;;;5011099;28;19940;-70
2022/04/20 10:48:14;;;;;;;;;;;13.00;73.10;;;;;;5002537;28;19937;-70
2022/04/20 10:51:06;;;;;;;;;;;13.00;75.10;;;;;;5007100;28;19925;-69
2022/04/20 10:53:33;;;;;;;;;;;13.10;75.40;;;;;;5007631;28;20028;-70
2022/04/20 10:56:01;;;;;;;;;;;13.30;76.50;;;;;;4994047;28;19929;-69
2022/04/20 10:58:32;;;;;;;;;;;13.40;72.50;;;;;;5010277;28;19952;-70
2022/04/20 11:01:09;;;;;;;;;;;13.30;71.80;;;;;;5002774;28;20045;-70
2022/04/20 11:03:52;;;;;;;;;;;13.40;71.90;;;;;;5009120;28;19926;-69
2022/04/20 11:06:27;;;;;;;;;;;13.30;67.60;;;;;;5006860;28;19936;-69
2022/04/20 11:09:00;;;;;;;;;;;13.20;66.90;;;;;;4998444;28;19932;-69
2022/04/20 11:20:50;;;;;;;;;;;13.50;67.80;;;;;;5025659;28;19995;-69
2022/04/20 11:23:42;;;;;;;;;;;13.60;66.60;;;;;;5004880;28;20336;-70
2022/04/20 11:26:19;;;;;;;;;;;13.60;65.40;;;;;;5011791;28;19926;-70
2022/04/20 11:28:51;;;;;;;;;;;13.60;64.20;;;;;;5005371;28;19930;-69
2022/04/20 11:31:18;;;;;;;;;;;13.60;63.90;;;;;;5006204;28;19925;-70
2022/04/20 11:33:50;;;;;;;;;;;13.70;65.90;;;;;;5005621;28;19929;-70
2022/04/20 11:36:22;;;;;;;;;;;13.80;62.10;;;;;;5021886;28;19926;-70
2022/04/20 11:38:53;;;;;;;;;;;13.80;61.50;;;;;;5004181;28;20393;-70
2022/04/20 11:41:25;;;;;;;;;;;13.90;62.40;;;;;;5005080;28;20398;-70
2022/04/20 11:43:58;;;;;;;;;;;14.00;61.20;;;;;;5002745;28;19972;-69
2022/04/20 11:46:31;;;;;;;;;;;14.00;57.70;;;;;;5012594;28;20394;-70
2022/04/20 11:49:09;;;;;;;;;;;14.00;59.40;;;;;;5006457;28;19953;-70
2022/04/20 11:51:45;;;;;;;;;;;14.00;59.50;;;;;;5022534;28;19932;-71
2022/04/20 11:54:17;;;;;;;;;;;14.10;62.60;;;;;;5009617;28;19925;-70
2022/04/20 11:57:06;;;;;;;;;;;14.20;61.80;;;;;;5019452;28;20301;-70
2022/04/20 11:59:48;;;;;;;;;;;14.40;60.40;;;;;;5008787;28;19929;-69
2022/04/20 12:02:15;;;;;;;;;;;14.30;60.70;;;;;;5007060;28;19929;-70
2022/04/20 12:05:07;;;;;;;;;;;14.40;59.10;;;;;;5009543;28;19925;-70
2022/04/20 12:07:39;;;;;;;;;;;14.50;60.90;;;;;;5005367;28;20133;-69
2022/04/20 12:10:12;;;;;;;;;;;14.70;61.30;;;;;;4993677;28;19981;-69
2022/04/20 12:12:43;;;;;;;;;;;14.80;58.30;;;;;;5008159;28;19948;-70
2022/04/20 12:15:20;;;;;;;;;;;14.80;57.70;;;;;;5004939;28;19930;-72
2022/04/20 12:17:56;;;;;;;;;;;14.90;58.50;;;;;;5004163;28;19995;-71
2022/04/20 12:20:27;;;;;;;;;;;15.00;59.10;;;;;;5006561;28;20410;-70
2022/04/20 12:23:06;;;;;;;;;;;15.00;57.60;;;;;;5007946;28;19934;-70
2022/04/20 12:25:39;;;;;;;;;;;14.90;56.80;;;;;;5008278;28;19939;-70
2022/04/20 12:28:35;;;;;;;;;;;14.90;59.30;;;;;;5011109;28;20012;-69
2022/04/20 12:30:59;;;;;;;;;;;15.00;58.20;;;;;;5007336;28;19926;-70
2022/04/20 12:33:31;;;;;;;;;;;15.10;58.00;;;;;;5009198;28;19926;-70
2022/04/20 12:36:13;;;;;;;;;;;15.20;57.10;;;;;;5005157;28;19937;-70
2022/04/20 12:38:56;;;;;;;;;;;15.30;57.50;;;;;;5023977;28;19925;-69
2022/04/20 12:41:44;;;;;;;;;;;15.30;57.20;;;;;;5005542;28;20048;-70
2022/04/20 12:44:35;;;;;;;;;;;15.40;56.70;;;;;;5007408;28;19993;-70
2022/04/20 12:47:08;;;;;;;;;;;15.20;57.20;;;;;;5005006;28;19936;-70
2022/04/20 12:49:40;;;;;;;;;;;15.20;56.10;;;;;;5007653;28;19940;-70
2022/04/20 12:52:13;;;;;;;;;;;15.30;54.50;;;;;;5008964;28;19926;-70
2022/04/20 12:54:58;;;;;;;;;;;15.40;53.60;;;;;;5006656;28;19925;-70
2022/04/20 13:03:15;;;;;;;;;;;15.50;54.90;;;;;;5006478;28;19925;-71
2022/04/20 13:05:48;;;;;;;;;;;15.70;55.00;;;;;;5018920;28;19929;-70
2022/04/20 13:08:20;;;;;;;;;;;15.80;56.10;;;;;;5008825;28;19929;-70
2022/04/20 13:10:52;;;;;;;;;;;15.80;55.60;;;;;;5007871;28;19935;-70
2022/04/20 13:13:25;;;;;;;;;;;15.90;54.50;;;;;;5008145;28;20397;-71
2022/04/20 13:16:00;;;;;;;;;;;16.10;54.00;;;;;;5004504;28;19937;-71
2022/04/20 13:18:31;;;;;;;;;;;16.10;52.70;;;;;;5001298;28;20409;-70
2022/04/20 13:21:03;;;;;;;;;;;16.10;52.70;;;;;;5000904;28;19925;-70
2022/04/20 13:23:35;;;;;;;;;;;16.10;52.10;;;;;;5006171;28;19933;-70
2022/04/20 13:28:57;;;;;;;;;;;16.10;53.50;;;;;;5006307;28;19925;-70
2022/04/20 13:31:29;;;;;;;;;;;16.10;53.70;;;;;;5005502;28;19925;-70
2022/04/20 13:34:00;;;;;;;;;;;16.20;54.60;;;;;;5007857;28;19948;-73
2022/04/20 13:36:32;;;;;;;;;;;16.10;53.80;;;;;;5012100;28;19936;-71
2022/04/20 13:39:03;;;;;;;;;;;16.20;53.90;;;;;;5007923;28;20016;-71
2022/04/20 13:41:35;;;;;;;;;;;16.20;53.00;;;;;;5012182;28;19933;-74
2022/04/20 13:44:07;;;;;;;;;;;16.40;53.10;;;;;;5009286;28;20543;-71
2022/04/20 13:46:39;;;;;;;;;;;16.60;53.40;;;;;;5009015;28;19933;-71
2022/04/20 13:49:10;;;;;;;;;;;16.60;52.00;;;;;;5011709;28;19929;-73
2022/04/20 13:51:42;;;;;;;;;;;16.70;53.50;;;;;;5010671;28;19929;-73
2022/04/20 13:54:14;;;;;;;;;;;16.80;50.20;;;;;;4992725;28;20025;-73
2022/04/20 13:56:46;;;;;;;;;;;17.00;51.50;;;;;;5005970;28;19925;-72
2022/04/20 13:59:13;;;;;;;;;;;17.10;54.10;;;;;;5012882;28;19929;-72
2022/04/20 14:01:44;;;;;;;;;;;17.30;54.20;;;;;;5006222;28;19930;-72
2022/04/20 14:04:16;;;;;;;;;;;17.40;51.90;;;;;;5011398;28;19984;-72
2022/04/20 14:06:50;;;;;;;;;;;17.50;51.30;;;;;;5018110;28;20409;-72
2022/04/20 14:09:21;;;;;;;;;;;17.50;51.90;;;;;;5007460;28;19932;-72
2022/04/20 14:11:48;;;;;;;;;;;17.50;52.80;;;;;;5011792;28;20413;-72
2022/04/20 14:14:19;;;;;;;;;;;17.70;52.10;;;;;;5010703;28;19929;-72
2022/04/20 14:16:52;;;;;;;;;;;17.60;51.20;;;;;;5005622;28;19941;-72
2022/04/20 14:19:24;;;;;;;;;;;17.60;49.90;;;;;;5008879;28;19925;-72
2022/04/20 14:21:57;;;;;;;;;;;17.90;51.50;;;;;;5003230;28;20358;-72
2022/04/20 14:24:31;;;;;;;;;;;18.10;50.90;;;;;;4995978;28;19930;-72
2022/04/20 14:32:43;;;;;;;;;;;18.80;50.10;;;;;;5005990;28;20398;-71
2022/04/20 14:35:15;;;;;;;;;;;18.70;49.40;;;;;;5006010;28;19932;-72
2022/04/20 14:37:47;;;;;;;;;;;18.60;49.40;;;;;;5001616;28;19930;-72
2022/04/20 14:40:18;;;;;;;;;;;18.60;48.90;;;;;;5004943;28;20431;-72
2022/04/20 14:42:50;;;;;;;;;;;18.60;48.10;;;;;;4996162;28;19925;-72
2022/04/20 14:45:23;;;;;;;;;;;18.70;48.40;;;;;;5001683;28;20315;-72
2022/04/20 14:47:50;;;;;;;;;;;19.20;47.90;;;;;;4994530;28;20149;-72
2022/04/20 14:50:24;;;;;;;;;;;19.60;47.40;;;;;;5003840;28;19932;-72
2022/04/20 14:52:56;;;;;;;;;;;19.70;46.50;;;;;;4991714;28;20000;-72
2022/04/20 14:55:29;;;;;;;;;;;19.70;46.40;;;;;;4996292;28;19932;-72
2022/04/20 14:58:01;;;;;;;;;;;19.90;46.70;;;;;;4997631;28;19930;-72
2022/04/20 15:00:33;;;;;;;;;;;20.40;45.80;;;;;;4997810;28;20301;-72
2022/04/20 15:03:05;;;;;;;;;;;20.70;45.90;;;;;;5001639;28;19936;-71
2022/04/20 15:05:36;;;;;;;;;;;21.00;44.20;;;;;;5006535;28;20421;-72
2022/04/20 15:08:08;;;;;;;;;;;21.20;43.60;;;;;;5023690;28;20056;-72
2022/04/20 15:10:40;;;;;;;;;;;21.00;44.00;;;;;;5023654;28;19932;-72
2022/04/20 15:13:12;;;;;;;;;;;20.90;43.40;;;;;;5006597;28;19936;-72
2022/04/20 15:15:43;;;;;;;;;;;21.00;43.50;;;;;;5013044;28;19936;-73
2022/04/20 15:18:10;;;;;;;;;;;21.10;42.50;;;;;;5013259;28;19944;-72
2022/04/20 15:20:42;;;;;;;;;;;20.90;41.90;;;;;;5008732;28;20536;-72
2022/04/20 15:23:14;;;;;;;;;;;20.90;40.80;;;;;;4997122;28;19932;-72
2022/04/20 15:25:46;;;;;;;;;;;21.10;40.40;;;;;;5009090;28;19966;-71
2022/04/20 15:28:17;;;;;;;;;;;21.10;40.70;;;;;;5005169;28;20386;-72
2022/04/20 15:30:49;;;;;;;;;;;21.20;40.00;;;;;;5007446;28;19936;-71
2022/04/20 15:33:16;;;;;;;;;;;21.70;39.50;;;;;;5005846;28;20008;-72
2022/04/20 15:35:48;;;;;;;;;;;21.80;38.00;;;;;;5008173;28;20016;-72
2022/04/20 15:38:19;;;;;;;;;;;21.90;37.50;;;;;;5006855;28;19942;-72
2022/04/20 15:40:52;;;;;;;;;;;22.10;38.40;;;;;;5007284;28;19925;-72
2022/04/20 15:43:23;;;;;;;;;;;21.80;37.60;;;;;;5008916;28;19945;-72
2022/04/20 15:45:56;;;;;;;;;;;21.70;38.70;;;;;;5009855;28;20021;-72
2022/04/20 15:48:27;;;;;;;;;;;21.70;38.50;;;;;;5023683;28;19926;-72
2022/04/20 15:50:55;;;;;;;;;;;21.60;39.10;;;;;;5006434;28;20004;-72
2022/04/20 15:53:30;;;;;;;;;;;22.00;39.80;;;;;;5013623;28;19952;-72
2022/04/20 16:01:42;;;;;;;;;;;22.60;36.70;;;;;;5005620;28;19929;-72
2022/04/20 16:04:14;;;;;;;;;;;22.70;36.80;;;;;;5007439;28;19939;-69
2022/04/20 16:06:45;;;;;;;;;;;22.80;36.20;;;;;;5005654;28;21502;-72
2022/04/20 16:09:17;;;;;;;;;;;22.80;36.50;;;;;;5007963;28;19930;-72
2022/04/20 16:11:48;;;;;;;;;;;23.10;36.30;;;;;;5008679;28;20306;-72
2022/04/20 16:14:25;;;;;;;;;;;22.80;36.10;;;;;;5004424;28;20327;-77
2022/04/20 16:16:52;;;;;;;;;;;23.10;36.30;;;;;;4996007;28;19926;-72